Wing, North Dakota
Current Conditions -  °F | °C
As of 9:52 AM on Thursday 27 Nov 2014 (Local Time) from KBIS Reporting Station
Overcast Overcast  
Wind Chill: -25°   Ceiling: 8500
Heat Index: -17°   Visibility: 10mi
Dew Point: -18°   Wind: 9mph
Humidity: 88%   Direction: 130°SE
Pressure: 30.29"   Gusts: NA
Location:  47.14°N, 100.28°W
Report Text: KBIS 271552Z 13008KT 10SM BKN085 OVC110 M17/M18 A3029 RMK AO2 SLP307 T11671183
Loading
Personal Weather Stations






























Interactive Weather Map New forecast layout! Learn more

10-Day Weather Forecast

Advertisements
Track Severe Weather on mobile